createdAt,value
2023-09-21T00:02:52.775Z,82.87
2023-09-21T00:05:57.862Z,82.68
2023-09-21T00:09:00.749Z,81.95
2023-09-21T00:12:03.942Z,82.16
2023-09-21T00:15:07.972Z,82.22
2023-09-21T00:18:10.916Z,81.93
2023-09-21T00:21:17.082Z,81.69
2023-09-21T00:24:23.381Z,81.28
2023-09-21T00:27:29.950Z,80.07
2023-09-21T00:30:32.698Z,80.40
2023-09-21T00:33:40.729Z,80.69
2023-09-21T00:36:46.530Z,82.85
2023-09-21T00:39:49.741Z,84.23
2023-09-21T00:42:57.457Z,84.25
2023-09-21T00:46:03.204Z,84.80
2023-09-21T00:49:08.080Z,84.75
2023-09-21T00:52:13.410Z,85.17
2023-09-21T00:55:40.699Z,85.96
2023-09-21T00:58:55.479Z,85.75
2023-09-21T01:01:58.885Z,85.25
2023-09-21T01:05:01.679Z,84.57
2023-09-21T01:08:06.585Z,84.23
2023-09-21T01:11:15.981Z,83.76
2023-09-21T01:14:18.876Z,82.80
2023-09-21T01:17:22.374Z,83.04
2023-09-21T01:20:29.279Z,82.49
2023-09-21T01:23:47.724Z,82.45
2023-09-21T01:26:50.839Z,83.08
2023-09-21T01:29:53.731Z,82.94
2023-09-21T01:32:56.778Z,82.77
2023-09-21T01:35:59.569Z,83.21
2023-09-21T01:39:02.367Z,83.56
2023-09-21T01:42:05.461Z,82.98
2023-09-21T01:45:15.113Z,82.82
2023-09-21T01:48:21.597Z,82.59
2023-09-21T01:51:24.667Z,83.04
2023-09-21T01:54:28.758Z,82.60
2023-09-21T01:57:31.523Z,82.07
2023-09-21T02:00:38.031Z,83.04
2023-09-21T02:03:40.950Z,83.78
2023-09-21T02:06:43.801Z,84.14
2023-09-21T02:09:46.589Z,83.60
2023-09-21T02:12:57.653Z,83.42
2023-09-21T02:16:00.564Z,83.09
2023-09-21T02:19:05.190Z,82.68
2023-09-21T02:22:08.892Z,82.97
2023-09-21T02:25:11.982Z,83.17
2023-09-21T02:28:14.720Z,82.93
2023-09-21T02:31:17.614Z,83.06
2023-09-21T02:34:20.409Z,82.95
2023-09-21T02:37:23.158Z,83.40
2023-09-21T02:40:26.133Z,83.94
2023-09-21T02:43:30.563Z,84.02
2023-09-21T02:46:34.277Z,83.83
2023-09-21T02:49:37.076Z,84.40
2023-09-21T02:52:39.933Z,84.63
2023-09-21T02:55:44.162Z,83.63
2023-09-21T02:58:47.579Z,84.37
2023-09-21T03:01:51.441Z,84.39
2023-09-21T03:04:56.569Z,85.55
2023-09-21T03:07:59.317Z,85.57
2023-09-21T03:11:02.103Z,83.92
2023-09-21T03:14:05.984Z,85.98
2023-09-21T03:17:09.345Z,88.16
2023-09-21T03:20:14.262Z,89.26
2023-09-21T03:23:17.795Z,87.61
2023-09-21T03:26:22.874Z,87.48
2023-09-21T03:29:26.633Z,87.83
2023-09-21T03:32:30.563Z,87.63
2023-09-21T03:35:33.812Z,86.93
2023-09-21T03:38:36.551Z,86.62
2023-09-21T03:41:39.439Z,86.47
2023-09-21T03:44:43.577Z,86.87
2023-09-21T03:47:47.950Z,87.75
2023-09-21T03:50:53.574Z,86.91
2023-09-21T03:54:00.674Z,88.33
2023-09-21T03:57:03.540Z,86.70
2023-09-21T04:00:26.367Z,86.96
2023-09-21T04:03:30.768Z,87.16
2023-09-21T04:06:36.189Z,88.14
2023-09-21T04:09:38.925Z,89.40
2023-09-21T04:12:41.927Z,90.28
2023-09-21T04:15:44.681Z,91.40
2023-09-21T04:18:47.663Z,92.26
2023-09-21T04:21:52.255Z,92.27
2023-09-21T04:24:55.353Z,92.21
2023-09-21T04:27:59.081Z,92.13
2023-09-21T04:31:02.595Z,92.09
2023-09-21T04:34:05.961Z,92.64
2023-09-21T04:37:10.486Z,93.65
2023-09-21T04:40:13.978Z,93.85
2023-09-21T04:43:18.868Z,93.00
2023-09-21T04:46:21.839Z,93.57
2023-09-21T04:49:26.332Z,94.46
2023-09-21T04:52:32.130Z,94.21
2023-09-21T04:55:37.300Z,94.18
2023-09-21T04:58:40.079Z,94.34
2023-09-21T05:01:43.037Z,94.67
2023-09-21T05:04:46.167Z,93.93
2023-09-21T05:07:48.954Z,93.06
2023-09-21T05:10:52.319Z,93.02
2023-09-21T05:13:55.162Z,94.38
2023-09-21T05:16:59.912Z,94.07
2023-09-21T05:20:02.828Z,94.13
2023-09-21T05:23:05.988Z,93.56
2023-09-21T05:26:08.749Z,93.87
2023-09-21T05:29:12.376Z,93.91
2023-09-21T05:32:15.266Z,94.17
2023-09-21T05:35:18.239Z,92.76
2023-09-21T05:38:21.409Z,92.12
2023-09-21T05:41:24.193Z,91.73
2023-09-21T05:44:27.212Z,90.71
2023-09-21T05:47:30.822Z,89.72
2023-09-21T05:50:34.332Z,88.45
2023-09-21T05:53:37.416Z,88.23
2023-09-21T05:56:40.576Z,88.70
2023-09-21T05:59:43.455Z,87.79
2023-09-21T06:02:46.453Z,86.42
2023-09-21T06:05:49.450Z,86.01
2023-09-21T06:08:54.278Z,86.04
2023-09-21T06:11:57.215Z,83.69
2023-09-21T06:15:00.110Z,83.47
2023-09-21T06:18:03.114Z,84.58
2023-09-21T06:21:08.028Z,83.86
2023-09-21T06:24:11.604Z,82.09
2023-09-21T06:27:15.836Z,77.72
2023-09-21T06:30:19.260Z,77.52
2023-09-21T06:33:26.070Z,79.61
2023-09-21T06:36:30.624Z,76.15
2023-09-21T06:39:33.989Z,72.48
2023-09-21T06:42:37.066Z,74.11
2023-09-21T06:45:41.023Z,70.05
2023-09-21T06:48:44.395Z,73.75
2023-09-21T06:51:48.236Z,75.20
2023-09-21T06:54:51.156Z,74.44
2023-09-21T06:57:56.560Z,74.15
2023-09-21T07:01:00.034Z,72.28
2023-09-21T07:04:05.567Z,71.58
2023-09-21T07:07:09.620Z,72.87
2023-09-21T07:10:16.022Z,75.89
2023-09-21T07:13:22.118Z,76.10
2023-09-21T07:16:25.203Z,77.34
2023-09-21T07:19:28.032Z,77.03
2023-09-21T07:22:30.816Z,77.06
2023-09-21T07:25:33.649Z,76.17
2023-09-21T07:28:36.804Z,75.39
2023-09-21T07:31:39.797Z,75.18
2023-09-21T07:34:42.750Z,75.20
2023-09-21T07:37:47.615Z,72.65
2023-09-21T07:40:50.924Z,65.92
2023-09-21T07:43:53.929Z,66.03
2023-09-21T07:46:58.505Z,66.73
2023-09-21T07:50:01.409Z,68.09
2023-09-21T07:53:05.572Z,71.23
2023-09-21T07:56:13.372Z,75.42
2023-09-21T07:59:17.371Z,74.12
2023-09-21T08:02:20.459Z,75.66
2023-09-21T08:05:24.158Z,74.25
2023-09-21T08:08:27.479Z,72.14
2023-09-21T08:11:30.554Z,73.07
2023-09-21T08:14:36.265Z,75.05
2023-09-21T08:17:42.444Z,73.45
2023-09-21T08:20:45.438Z,71.68
2023-09-21T08:23:48.375Z,75.28
2023-09-21T08:26:51.563Z,73.52
2023-09-21T08:29:54.349Z,73.23
2023-09-21T08:32:57.187Z,73.81
2023-09-21T08:36:01.531Z,74.44
2023-09-21T08:39:06.112Z,74.44
2023-09-21T08:42:11.246Z,73.01
2023-09-21T08:45:16.572Z,72.12
2023-09-21T08:48:22.254Z,68.62
2023-09-21T08:51:27.035Z,63.89
2023-09-21T08:54:30.692Z,63.84
2023-09-21T08:57:33.668Z,64.32
2023-09-21T09:00:37.428Z,64.28
2023-09-21T09:03:41.298Z,67.51
2023-09-21T09:06:44.422Z,70.94
2023-09-21T09:09:47.763Z,70.88
2023-09-21T09:13:06.785Z,72.26
2023-09-21T09:16:09.741Z,64.50
2023-09-21T09:19:13.567Z,60.07
2023-09-21T09:22:17.523Z,57.90
2023-09-21T09:25:22.536Z,46.40
2023-09-21T09:28:27.633Z,45.59
2023-09-21T09:31:30.646Z,42.23
2023-09-21T09:34:33.456Z,37.64
2023-09-21T09:37:38.830Z,38.59
2023-09-21T09:40:44.104Z,42.73
2023-09-21T09:43:53.895Z,43.67
2023-09-21T09:46:59.210Z,46.18
2023-09-21T09:50:04.370Z,48.74
2023-09-21T09:53:12.379Z,49.71
2023-09-21T09:56:16.421Z,50.79
2023-09-21T09:59:22.828Z,54.68
2023-09-21T10:02:32.245Z,54.07
2023-09-21T10:05:37.429Z,55.68
2023-09-21T10:08:41.113Z,58.53
2023-09-21T10:11:48.360Z,57.39
2023-09-21T10:14:51.542Z,50.20
2023-09-21T10:17:58.694Z,48.05
2023-09-21T10:21:32.355Z,48.30
2023-09-21T10:24:35.777Z,42.92
2023-09-21T10:27:40.918Z,38.25
2023-09-21T10:30:44.805Z,39.40
2023-09-21T10:34:02.758Z,38.66
2023-09-21T10:37:12.541Z,41.70
2023-09-21T10:40:21.406Z,39.35
2023-09-21T10:43:39.168Z,31.77
2023-09-21T10:46:45.234Z,29.77
2023-09-21T10:49:50.068Z,29.00
2023-09-21T10:52:57.118Z,30.96
2023-09-21T10:56:01.151Z,27.62
2023-09-21T10:59:03.988Z,28.23
2023-09-21T11:02:08.193Z,25.42
2023-09-21T11:05:12.253Z,27.96
2023-09-21T11:08:16.915Z,31.54
2023-09-21T11:11:23.456Z,31.27
2023-09-21T11:14:26.497Z,32.86
2023-09-21T11:17:30.363Z,33.94
2023-09-21T11:20:33.650Z,30.33
2023-09-21T11:23:40.194Z,28.01
2023-09-21T11:26:55.809Z,23.88
2023-09-21T11:29:58.898Z,23.55
2023-09-21T11:33:01.989Z,24.63
2023-09-21T11:36:22.838Z,25.20
2023-09-21T11:39:29.147Z,25.85
2023-09-21T11:42:34.611Z,27.35
2023-09-21T11:45:43.702Z,27.09
2023-09-21T11:48:50.186Z,26.15
2023-09-21T11:51:54.685Z,28.69
2023-09-21T11:54:58.197Z,27.82
2023-09-21T11:58:08.720Z,30.04
2023-09-21T12:01:11.899Z,33.12
2023-09-21T12:04:18.288Z,35.48
2023-09-21T12:07:21.547Z,35.39
2023-09-21T12:10:25.727Z,37.04
2023-09-21T12:13:31.743Z,34.84
2023-09-21T12:16:35.618Z,33.45
2023-09-21T12:19:40.594Z,35.96
2023-09-21T12:22:43.756Z,36.24
2023-09-21T12:25:47.879Z,36.37
2023-09-21T12:28:50.939Z,35.15
2023-09-21T12:31:59.913Z,33.53
2023-09-21T12:35:07.944Z,35.87
2023-09-21T12:38:14.486Z,35.38
2023-09-21T12:41:17.396Z,33.57
2023-09-21T12:44:20.495Z,33.79
2023-09-21T12:47:23.643Z,32.92
2023-09-21T12:50:27.949Z,30.58
2023-09-21T12:53:31.242Z,33.21
2023-09-21T12:56:35.332Z,34.12
2023-09-21T12:59:38.460Z,33.92
2023-09-21T13:02:43.558Z,34.38
2023-09-21T13:05:49.000Z,34.61
2023-09-21T13:08:51.863Z,34.42
2023-09-21T13:11:56.306Z,32.71
2023-09-21T13:14:59.843Z,29.01
2023-09-21T13:18:03.986Z,29.97
2023-09-21T13:21:11.664Z,31.81
2023-09-21T13:24:14.938Z,29.90
2023-09-21T13:27:18.844Z,31.06
2023-09-21T13:30:22.185Z,32.58
2023-09-21T13:33:25.847Z,30.98
2023-09-21T13:39:51.305Z,38.40
2023-09-21T13:42:55.045Z,38.27
2023-09-21T13:46:00.911Z,38.85
2023-09-21T13:49:04.384Z,39.29
2023-09-21T13:52:08.302Z,39.52
2023-09-21T13:55:18.362Z,39.47
2023-09-21T13:58:23.872Z,40.21
2023-09-21T14:01:28.567Z,40.50
2023-09-21T14:04:31.813Z,41.06
2023-09-21T14:07:36.036Z,41.54
2023-09-21T14:10:40.246Z,43.36
2023-09-21T14:13:43.543Z,43.45
2023-09-21T14:16:47.589Z,43.36
2023-09-21T14:19:50.967Z,44.05
2023-09-21T14:22:56.336Z,43.80
2023-09-21T14:25:59.130Z,44.11
2023-09-21T14:29:01.861Z,44.33
2023-09-21T14:32:05.477Z,44.78
2023-09-21T14:35:14.540Z,45.12
2023-09-21T14:38:18.205Z,44.81
2023-09-21T14:41:20.929Z,44.53
2023-09-21T14:44:23.949Z,45.48
2023-09-21T14:47:32.065Z,45.61
2023-09-21T14:50:35.321Z,46.01
2023-09-21T14:53:38.334Z,45.36
2023-09-21T14:56:46.330Z,45.86
2023-09-21T14:59:49.364Z,46.15
2023-09-21T15:02:54.056Z,46.11
2023-09-21T15:05:57.055Z,46.46
2023-09-21T15:09:00.346Z,47.09
2023-09-21T15:12:04.893Z,47.01
2023-09-21T15:15:09.186Z,47.22
2023-09-21T15:18:15.335Z,47.68
2023-09-21T15:21:19.406Z,48.61
2023-09-21T15:24:23.701Z,48.52
2023-09-21T15:27:32.820Z,49.17
2023-09-21T15:30:43.010Z,48.85
2023-09-21T15:33:56.280Z,49.58
2023-09-21T15:36:59.373Z,50.70
2023-09-21T15:40:02.523Z,51.27
2023-09-21T15:43:06.117Z,51.50
2023-09-21T15:46:09.292Z,51.77
2023-09-21T15:49:13.083Z,53.51
2023-09-21T15:52:16.772Z,54.05
2023-09-21T15:55:19.811Z,54.48
2023-09-21T15:58:22.520Z,54.07
2023-09-21T16:01:25.820Z,55.23
2023-09-21T16:04:29.487Z,52.98
2023-09-21T16:07:32.680Z,49.32
2023-09-21T16:10:35.610Z,47.31
2023-09-21T16:13:38.835Z,46.01
2023-09-21T16:16:41.997Z,46.73
2023-09-21T16:19:45.141Z,47.11
2023-09-21T16:22:48.950Z,47.32
2023-09-21T16:25:52.203Z,48.29
2023-09-21T16:28:55.268Z,48.83
2023-09-21T16:32:01.281Z,50.00
2023-09-21T16:35:05.526Z,50.64
2023-09-21T16:38:09.114Z,51.07
2023-09-21T16:41:12.304Z,51.71
2023-09-21T16:44:14.982Z,51.64
2023-09-21T16:47:21.944Z,51.96
2023-09-21T16:50:24.735Z,52.98
2023-09-21T16:53:29.078Z,59.73
2023-09-21T16:56:34.518Z,66.64
2023-09-21T16:59:37.480Z,69.93
2023-09-21T17:02:40.901Z,71.25
2023-09-21T17:05:43.722Z,68.92
2023-09-21T17:08:47.368Z,67.86
2023-09-21T17:11:50.194Z,67.79
2023-09-21T17:14:56.194Z,69.22
2023-09-21T17:18:00.004Z,73.75
2023-09-21T17:21:06.813Z,76.33
2023-09-21T17:24:10.284Z,81.27
2023-09-21T17:27:13.173Z,87.23
2023-09-21T17:30:16.686Z,93.28
2023-09-21T17:33:20.844Z,96.66
2023-09-21T17:36:25.115Z,99.00
2023-09-21T17:39:42.937Z,100.00
2023-09-21T17:42:47.450Z,100.00
2023-09-21T17:45:50.716Z,100.00
2023-09-21T17:48:57.184Z,100.00
2023-09-21T17:55:54.019Z,100.00
2023-09-21T17:58:57.420Z,100.00
2023-09-21T18:02:00.654Z,100.00
2023-09-21T18:05:04.378Z,100.00
2023-09-21T18:08:07.648Z,100.00
2023-09-21T18:11:10.721Z,100.00
2023-09-21T18:14:13.846Z,100.00
2023-09-21T18:17:17.144Z,100.00
2023-09-21T18:20:22.990Z,100.00
2023-09-21T18:23:26.849Z,100.00
2023-09-21T18:26:29.935Z,100.00
2023-09-21T18:29:34.175Z,100.00
2023-09-21T18:32:38.300Z,100.00
2023-09-21T18:35:41.871Z,100.00
2023-09-21T18:38:46.518Z,100.00
2023-09-21T18:41:50.018Z,100.00
2023-09-21T18:44:52.809Z,100.00
2023-09-21T18:47:55.722Z,100.00
2023-09-21T18:51:01.039Z,100.00
2023-09-21T18:54:06.671Z,100.00
2023-09-21T18:57:10.511Z,100.00
2023-09-21T19:00:15.928Z,100.00
2023-09-21T19:03:19.881Z,100.00
2023-09-21T19:06:23.411Z,100.00
2023-09-21T19:09:26.544Z,100.00
2023-09-21T19:12:30.239Z,100.00
2023-09-21T19:15:33.593Z,100.00
2023-09-21T19:18:36.855Z,100.00
2023-09-21T19:21:39.650Z,100.00
2023-09-21T19:24:43.365Z,100.00
2023-09-21T19:27:49.241Z,100.00
2023-09-21T19:30:52.427Z,100.00
2023-09-21T19:33:56.660Z,100.00
2023-09-21T19:36:59.780Z,100.00
2023-09-21T19:40:03.105Z,100.00
2023-09-21T19:43:06.297Z,100.00
2023-09-21T19:46:09.446Z,100.00
2023-09-21T19:49:14.104Z,100.00
2023-09-21T19:52:16.931Z,100.00
2023-09-21T19:55:19.915Z,100.00
2023-09-21T19:58:23.038Z,100.00
2023-09-21T20:01:26.399Z,100.00
2023-09-21T20:04:29.501Z,100.00
2023-09-21T20:07:32.884Z,100.00
2023-09-21T20:10:35.952Z,100.00
2023-09-21T20:13:39.217Z,100.00
2023-09-21T20:16:42.224Z,100.00
2023-09-21T20:19:45.076Z,100.00
2023-09-21T20:22:47.940Z,100.00
2023-09-21T20:25:50.921Z,100.00
2023-09-21T20:28:53.698Z,100.00
2023-09-21T20:31:57.275Z,100.00
2023-09-21T20:35:00.189Z,100.00
2023-09-21T20:38:03.557Z,100.00
2023-09-21T20:41:06.453Z,100.00
2023-09-21T20:44:09.615Z,100.00
2023-09-21T20:47:12.402Z,100.00
2023-09-21T20:50:15.486Z,100.00
2023-09-21T20:53:18.736Z,100.00
2023-09-21T20:56:21.475Z,100.00
2023-09-21T20:59:24.200Z,100.00
2023-09-21T21:02:27.377Z,100.00
2023-09-21T21:05:31.037Z,100.00
2023-09-21T21:08:35.198Z,100.00
2023-09-21T21:11:38.240Z,100.00
2023-09-21T21:14:42.171Z,100.00
2023-09-21T21:17:45.230Z,100.00
2023-09-21T21:20:48.060Z,100.00
2023-09-21T21:23:51.045Z,100.00
2023-09-21T21:26:54.587Z,100.00
2023-09-21T21:29:57.607Z,100.00
2023-09-21T21:33:00.697Z,100.00
2023-09-21T21:36:04.136Z,100.00
2023-09-21T21:39:07.263Z,100.00
2023-09-21T21:42:11.274Z,100.00
2023-09-21T21:45:14.786Z,100.00
2023-09-21T21:48:17.837Z,100.00
2023-09-21T21:51:20.648Z,100.00
2023-09-21T21:54:23.566Z,100.00
2023-09-21T21:57:26.804Z,100.00
2023-09-21T22:00:32.809Z,100.00
2023-09-21T22:03:36.060Z,100.00
2023-09-21T22:06:39.204Z,100.00
2023-09-21T22:09:42.519Z,100.00
2023-09-21T22:12:45.792Z,100.00
2023-09-21T22:15:49.409Z,100.00
2023-09-21T22:18:52.393Z,100.00
2023-09-21T22:21:56.822Z,100.00
2023-09-21T22:25:01.281Z,100.00
2023-09-21T22:28:05.279Z,100.00
2023-09-21T22:31:13.300Z,100.00
2023-09-21T22:34:16.547Z,100.00
2023-09-21T22:37:19.592Z,100.00
2023-09-21T22:40:22.600Z,100.00
2023-09-21T22:43:26.078Z,100.00
2023-09-21T22:46:29.193Z,100.00
2023-09-21T22:49:32.774Z,100.00
2023-09-21T22:52:35.917Z,100.00
2023-09-21T22:55:39.222Z,100.00
2023-09-21T22:58:41.985Z,100.00
2023-09-21T23:01:45.143Z,100.00
2023-09-21T23:04:51.922Z,100.00
2023-09-21T23:07:57.321Z,100.00
2023-09-21T23:11:04.332Z,100.00
2023-09-21T23:14:07.389Z,100.00
2023-09-21T23:17:10.554Z,100.00
2023-09-21T23:20:16.746Z,100.00
2023-09-21T23:23:19.953Z,100.00
2023-09-21T23:26:22.997Z,100.00
2023-09-21T23:29:26.045Z,100.00
2023-09-21T23:32:29.344Z,100.00
2023-09-21T23:35:33.728Z,100.00
2023-09-21T23:38:36.578Z,100.00
2023-09-21T23:41:39.638Z,100.00
2023-09-21T23:44:42.882Z,100.00
2023-09-21T23:47:45.963Z,100.00
2023-09-21T23:50:49.046Z,100.00
2023-09-21T23:53:52.658Z,100.00
2023-09-21T23:56:55.898Z,100.00
2023-09-21T23:59:59.685Z,100.00
